DEDRR EDDH-EDCW
Flight info
| Callsign | DEDRR |
|---|---|
| Flight time | N/A |
| Altitude | 2500 |
| Route | VFR |
| Aircraft | P28A/L-S/C |
Departure
| Time | 2026-05-05 16:01 |
|---|---|
| Airport | Hamburg Helmut Schmidt Airport (EDDH) |
Arrival
| Time | N/A |
|---|---|
| Airport | Wismar Airfield (EDCW) |
| Time | Latitude | Longitude | Altitude | Speed | Heading |
|---|---|---|---|---|---|
| 2026-05-05 15:45 | 53.62704 | 9.98801 | 41 ft | 0 kts | 242° |
| 2026-05-05 15:52 | 53.62703 | 9.98799 | 41 ft | 2 kts | 242° |
| 2026-05-05 15:52 | 53.62720 | 9.98748 | 41 ft | 8 kts | 295° |
| 2026-05-05 15:52 | 53.62771 | 9.98716 | 41 ft | 10 kts | 52° |
| 2026-05-05 15:53 | 53.62825 | 9.98826 | 41 ft | 14 kts | 49° |
| 2026-05-05 15:53 | 53.62894 | 9.98960 | 41 ft | 16 kts | 51° |
| 2026-05-05 15:53 | 53.62967 | 9.99109 | 41 ft | 15 kts | 50° |
| 2026-05-05 15:53 | 53.63032 | 9.99241 | 41 ft | 14 kts | 48° |
| 2026-05-05 15:54 | 53.63093 | 9.99296 | 41 ft | 5 kts | 19° |
| 2026-05-05 15:54 | 53.63103 | 9.99300 | 41 ft | 0 kts | 14° |
| 2026-05-05 15:55 | 53.63121 | 9.99308 | 41 ft | 8 kts | 14° |
| 2026-05-05 15:55 | 53.63148 | 9.99319 | 41 ft | 0 kts | 14° |
| 2026-05-05 15:59 | 53.63167 | 9.99327 | 41 ft | 8 kts | 13° |
| 2026-05-05 16:00 | 53.63254 | 9.99363 | 41 ft | 17 kts | 15° |
| 2026-05-05 16:00 | 53.63415 | 9.99273 | 42 ft | 46 kts | 332° |
| 2026-05-05 16:00 | 53.63854 | 9.98894 | 139 ft | 83 kts | 336° |
| 2026-05-05 16:00 | 53.64421 | 9.98647 | 454 ft | 84 kts | 4° |
| 2026-05-05 16:01 | 53.65001 | 9.98766 | 772 ft | 87 kts | 15° |
| 2026-05-05 16:01 | 53.65618 | 9.99031 | 1013 ft | 90 kts | 21° |
| 2026-05-05 16:01 | 53.66239 | 9.99257 | 1259 ft | 100 kts | 6° |
| 2026-05-05 16:01 | 53.66996 | 9.99241 | 1428 ft | 115 kts | 7° |
| 2026-05-05 16:02 | 53.67800 | 9.99358 | 1550 ft | 117 kts | 19° |
| 2026-05-05 16:02 | 53.68499 | 10.00126 | 1536 ft | 123 kts | 39° |
| 2026-05-05 16:02 | 53.69182 | 10.01000 | 1634 ft | 119 kts | 35° |
| 2026-05-05 16:02 | 53.69898 | 10.01575 | 1851 ft | 112 kts | 21° |
| 2026-05-05 16:03 | 53.70674 | 10.01852 | 1973 ft | 116 kts | 10° |
| 2026-05-05 16:03 | 53.71487 | 10.02020 | 2114 ft | 117 kts | 11° |
| 2026-05-05 16:03 | 53.72272 | 10.02263 | 2264 ft | 115 kts | 14° |
| 2026-05-05 16:03 | 53.73066 | 10.02505 | 2372 ft | 117 kts | 11° |
| 2026-05-05 16:04 | 53.73885 | 10.02747 | 2398 ft | 123 kts | 12° |
| 2026-05-05 16:04 | 53.74738 | 10.02927 | 2445 ft | 125 kts | 5° |
| 2026-05-05 16:04 | 53.75622 | 10.02979 | 2410 ft | 130 kts | 4° |
| 2026-05-05 16:04 | 53.76550 | 10.03020 | 2372 ft | 132 kts | 4° |
| 2026-05-05 16:05 | 53.77459 | 10.03065 | 2344 ft | 133 kts | 3° |
| 2026-05-05 16:05 | 53.78376 | 10.03102 | 2357 ft | 129 kts | 5° |
| 2026-05-05 16:05 | 53.79283 | 10.03148 | 2351 ft | 129 kts | 4° |
| 2026-05-05 16:05 | 53.80179 | 10.03174 | 2378 ft | 129 kts | 3° |
| 2026-05-05 16:06 | 53.81076 | 10.03208 | 2423 ft | 126 kts | 5° |
| 2026-05-05 16:06 | 53.81951 | 10.03341 | 2459 ft | 126 kts | 11° |
| 2026-05-05 16:06 | 53.82716 | 10.03844 | 2604 ft | 117 kts | 36° |
| 2026-05-05 16:06 | 53.83209 | 10.04879 | 2879 ft | 109 kts | 63° |
| 2026-05-05 16:07 | 53.83490 | 10.06037 | 3180 ft | 106 kts | 68° |
| 2026-05-05 16:07 | 53.83724 | 10.07203 | 3468 ft | 103 kts | 70° |
| 2026-05-05 16:07 | 53.83925 | 10.08320 | 3796 ft | 97 kts | 71° |
| 2026-05-05 16:07 | 53.84031 | 10.09536 | 3960 ft | 106 kts | 80° |
| 2026-05-05 16:08 | 53.84083 | 10.10731 | 4301 ft | 98 kts | 84° |
| 2026-05-05 16:08 | 53.84076 | 10.11862 | 4629 ft | 92 kts | 86° |
| 2026-05-05 16:08 | 53.84031 | 10.12954 | 4846 ft | 97 kts | 88° |
| 2026-05-05 16:08 | 53.84001 | 10.13730 | 4977 ft | 100 kts | 90° |
| 2026-05-05 16:09 | 53.83949 | 10.14983 | 5093 ft | 113 kts | 91° |
| 2026-05-05 16:09 | 53.83832 | 10.16446 | 5029 ft | 134 kts | 97° |
| 2026-05-05 16:09 | 53.83701 | 10.17968 | 5232 ft | 129 kts | 92° |
| 2026-05-05 16:09 | 53.83567 | 10.19515 | 5285 ft | 135 kts | 100° |
| 2026-05-05 16:10 | 53.83382 | 10.21076 | 5437 ft | 133 kts | 98° |
| 2026-05-05 16:10 | 53.83218 | 10.22666 | 5469 ft | 139 kts | 98° |
| 2026-05-05 16:10 | 53.83036 | 10.24241 | 5595 ft | 137 kts | 98° |
| 2026-05-05 16:10 | 53.82898 | 10.25915 | 5652 ft | 140 kts | 93° |
| 2026-05-05 16:11 | 53.82847 | 10.27508 | 5775 ft | 138 kts | 92° |
| 2026-05-05 16:11 | 53.82094 | 10.32309 | 5995 ft | 142 kts | 93° |
| 2026-05-05 16:12 | 53.82055 | 10.33979 | 6081 ft | 143 kts | 91° |
| 2026-05-05 16:12 | 53.81995 | 10.37309 | 6304 ft | 142 kts | 90° |
| 2026-05-05 16:13 | 53.81896 | 10.42169 | 6756 ft | 133 kts | 88° |
| 2026-05-05 16:13 | 53.81945 | 10.43807 | 6886 ft | 136 kts | 85° |
| 2026-05-05 16:13 | 53.81993 | 10.45278 | 7165 ft | 124 kts | 86° |
| 2026-05-05 16:14 | 53.82102 | 10.48141 | 7609 ft | 118 kts | 86° |
| 2026-05-05 16:14 | 53.82123 | 10.50845 | 8073 ft | 113 kts | 91° |
| 2026-05-05 16:15 | 53.82043 | 10.53485 | 8453 ft | 116 kts | 93° |
| 2026-05-05 16:15 | 53.81968 | 10.56341 | 8699 ft | 124 kts | 94° |
| 2026-05-05 16:16 | 53.81749 | 10.59249 | 8984 ft | 125 kts | 99° |
| 2026-05-05 16:16 | 53.81416 | 10.62150 | 9246 ft | 126 kts | 105° |
| 2026-05-05 16:17 | 53.81057 | 10.65024 | 9538 ft | 124 kts | 102° |
| 2026-05-05 16:17 | 53.80894 | 10.66436 | 9685 ft | 123 kts | 103° |
| 2026-05-05 16:18 | 53.80604 | 10.69311 | 9899 ft | 124 kts | 103° |
| 2026-05-05 16:18 | 53.80358 | 10.70702 | 9984 ft | 125 kts | 115° |
| 2026-05-05 16:18 | 53.79662 | 10.73383 | 10160 ft | 126 kts | 112° |
| 2026-05-05 16:19 | 53.79616 | 10.74829 | 10183 ft | 131 kts | 70° |
| 2026-05-05 16:19 | 53.79888 | 10.76297 | 10315 ft | 127 kts | 72° |
| 2026-05-05 16:19 | 53.80379 | 10.79252 | 10457 ft | 129 kts | 69° |
| 2026-05-05 16:20 | 53.81028 | 10.82124 | 10599 ft | 130 kts | 65° |
| 2026-05-05 16:20 | 53.81734 | 10.84981 | 10746 ft | 130 kts | 64° |
| 2026-05-05 16:21 | 53.82475 | 10.87813 | 10829 ft | 132 kts | 62° |
| 2026-05-05 16:22 | 53.83629 | 10.92057 | 10934 ft | 132 kts | 69° |
| 2026-05-05 16:22 | 53.83875 | 10.95190 | 10629 ft | 137 kts | 95° |
| 2026-05-05 16:23 | 53.83419 | 10.98162 | 10220 ft | 131 kts | 108° |
| 2026-05-05 16:23 | 53.83134 | 10.99637 | 9941 ft | 134 kts | 111° |
| 2026-05-05 16:23 | 53.82619 | 11.02650 | 9466 ft | 132 kts | 103° |
| 2026-05-05 16:24 | 53.82445 | 11.04182 | 9226 ft | 132 kts | 102° |
| 2026-05-05 16:24 | 53.82295 | 11.05699 | 9040 ft | 130 kts | 98° |
| 2026-05-05 16:24 | 53.82037 | 11.08742 | 8651 ft | 128 kts | 103° |
| 2026-05-05 16:25 | 53.81830 | 11.10199 | 8473 ft | 128 kts | 108° |
| 2026-05-05 16:25 | 53.81557 | 11.13156 | 8137 ft | 129 kts | 90° |
| 2026-05-05 16:25 | 53.81558 | 11.14657 | 8021 ft | 126 kts | 88° |
| 2026-05-05 16:26 | 53.81681 | 11.17636 | 7701 ft | 127 kts | 85° |
| 2026-05-05 16:26 | 53.81161 | 11.20419 | 7377 ft | 126 kts | 127° |
| 2026-05-05 16:27 | 53.80548 | 11.21619 | 6946 ft | 142 kts | 133° |
| 2026-05-05 16:27 | 53.79886 | 11.22964 | 6400 ft | 150 kts | 128° |
| 2026-05-05 16:27 | 53.79239 | 11.24377 | 5658 ft | 153 kts | 127° |
| 2026-05-05 16:27 | 53.78582 | 11.25720 | 5087 ft | 144 kts | 129° |
| 2026-05-05 16:28 | 53.77943 | 11.26985 | 4521 ft | 141 kts | 127° |
| 2026-05-05 16:28 | 53.77292 | 11.28271 | 3868 ft | 145 kts | 127° |
| 2026-05-05 16:28 | 53.76645 | 11.29512 | 3298 ft | 142 kts | 124° |
| 2026-05-05 16:28 | 53.76091 | 11.30797 | 2861 ft | 130 kts | 119° |
| 2026-05-05 16:29 | 53.75562 | 11.32059 | 2606 ft | 137 kts | 121° |
| 2026-05-05 16:29 | 53.74953 | 11.33375 | 2583 ft | 144 kts | 123° |
| 2026-05-05 16:29 | 53.74295 | 11.34664 | 2636 ft | 143 kts | 127° |
| 2026-05-05 16:29 | 53.73631 | 11.35904 | 2669 ft | 142 kts | 124° |
| 2026-05-05 16:30 | 53.73072 | 11.37256 | 2605 ft | 141 kts | 114° |
| 2026-05-05 16:30 | 53.72614 | 11.38707 | 2531 ft | 145 kts | 114° |
| 2026-05-05 16:30 | 53.72050 | 11.40141 | 2420 ft | 151 kts | 121° |
| 2026-05-05 16:30 | 53.71389 | 11.41508 | 2352 ft | 152 kts | 124° |
| 2026-05-05 16:31 | 53.70653 | 11.42791 | 2290 ft | 154 kts | 136° |
| 2026-05-05 16:31 | 53.69757 | 11.43716 | 2292 ft | 148 kts | 149° |
| 2026-05-05 16:31 | 53.68770 | 11.44230 | 2074 ft | 149 kts | 163° |
| 2026-05-05 16:31 | 53.67776 | 11.44564 | 2017 ft | 142 kts | 161° |
| 2026-05-05 16:32 | 53.66807 | 11.44874 | 1909 ft | 144 kts | 164° |
| 2026-05-05 16:32 | 53.65805 | 11.45117 | 1762 ft | 146 kts | 168° |
| 2026-05-05 16:32 | 53.64785 | 11.45153 | 1650 ft | 146 kts | 174° |
| 2026-05-05 16:32 | 53.63783 | 11.45162 | 1592 ft | 143 kts | 171° |
| 2026-05-05 16:33 | 53.62795 | 11.45342 | 1584 ft | 136 kts | 161° |
| 2026-05-05 16:33 | 53.61921 | 11.45879 | 1585 ft | 130 kts | 143° |
| 2026-05-05 16:33 | 53.61221 | 11.46774 | 1615 ft | 124 kts | 126° |
| 2026-05-05 16:33 | 53.60780 | 11.47950 | 1611 ft | 120 kts | 103° |
| 2026-05-05 16:34 | 53.60808 | 11.49315 | 1505 ft | 115 kts | 73° |
| 2026-05-05 16:34 | 53.61063 | 11.50481 | 1394 ft | 99 kts | 62° |
| 2026-05-05 16:34 | 53.61369 | 11.51534 | 1207 ft | 101 kts | 60° |
| 2026-05-05 16:34 | 53.61666 | 11.52586 | 1003 ft | 100 kts | 63° |
| 2026-05-05 16:35 | 53.61862 | 11.53687 | 729 ft | 96 kts | 68° |
| 2026-05-05 16:35 | 53.61879 | 11.54449 | 566 ft | 98 kts | 88° |
| 2026-05-05 16:35 | 53.61676 | 11.55545 | 298 ft | 93 kts | 113° |
| 2026-05-05 16:35 | 53.61366 | 11.56378 | 183 ft | 75 kts | 116° |
| 2026-05-05 16:36 | 53.60956 | 11.57062 | 400 ft | 96 kts | 155° |
| 2026-05-05 16:36 | 53.60605 | 11.57786 | 696 ft | 85 kts | 83° |
| 2026-05-05 16:36 | 53.60888 | 11.58703 | 877 ft | 98 kts | 41° |
| 2026-05-05 16:36 | 53.61464 | 11.59504 | 979 ft | 112 kts | 38° |
| 2026-05-05 16:37 | 53.62093 | 11.60215 | 1236 ft | 107 kts | 12° |
| 2026-05-05 16:37 | 53.62771 | 11.59638 | 1407 ft | 125 kts | 313° |
| 2026-05-05 16:37 | 53.63161 | 11.58277 | 1500 ft | 135 kts | 294° |
| 2026-05-05 16:37 | 53.63465 | 11.56760 | 1573 ft | 139 kts | 293° |
| 2026-05-05 16:38 | 53.63613 | 11.55215 | 1550 ft | 126 kts | 259° |
| 2026-05-05 16:38 | 53.63106 | 11.54200 | 1365 ft | 110 kts | 201° |
| 2026-05-05 16:38 | 53.62377 | 11.54165 | 1022 ft | 101 kts | 150° |
| 2026-05-05 16:38 | 53.61884 | 11.54889 | 557 ft | 90 kts | 112° |
| 2026-05-05 16:39 | 53.61595 | 11.55765 | 215 ft | 78 kts | 112° |
| 2026-05-05 16:39 | 53.61343 | 11.56479 | 175 ft | 66 kts | 110° |
| 2026-05-05 16:39 | 53.61184 | 11.57214 | 365 ft | 70 kts | 65° |
| 2026-05-05 16:39 | 53.61598 | 11.57521 | 635 ft | 79 kts | 349° |
| 2026-05-05 16:40 | 53.62128 | 11.56906 | 765 ft | 104 kts | 316° |
| 2026-05-05 16:40 | 53.62466 | 11.55837 | 857 ft | 97 kts | 302° |
| 2026-05-05 16:40 | 53.62735 | 11.54932 | 796 ft | 85 kts | 285° |
| 2026-05-05 16:40 | 53.62412 | 11.54222 | 708 ft | 79 kts | 185° |
| 2026-05-05 16:41 | 53.61990 | 11.54567 | 582 ft | 69 kts | 111° |
| 2026-05-05 16:41 | 53.61762 | 11.55299 | 364 ft | 72 kts | 112° |
| 2026-05-05 16:41 | 53.61501 | 11.56015 | 160 ft | 69 kts | 112° |
| 2026-05-05 16:41 | 53.61336 | 11.56473 | 148 ft | 19 kts | 116° |
| 2026-05-05 16:42 | 53.61319 | 11.56497 | 148 ft | 1 kts | 239° |
| 2026-05-05 16:42 | 53.61350 | 11.56406 | 148 ft | 17 kts | 307° |
| 2026-05-05 16:42 | 53.61436 | 11.56159 | 146 ft | 29 kts | 300° |
| 2026-05-05 16:42 | 53.61517 | 11.55969 | 150 ft | 5 kts | 50° |
| 2026-05-05 16:43 | 53.61468 | 11.56119 | 147 ft | 40 kts | 124° |
| 2026-05-05 16:43 | 53.61253 | 11.56638 | 333 ft | 54 kts | 106° |
| 2026-05-05 16:43 | 53.61140 | 11.57339 | 516 ft | 63 kts | 68° |
| 2026-05-05 16:43 | 53.61469 | 11.57932 | 693 ft | 81 kts | 26° |
| 2026-05-05 16:44 | 53.62073 | 11.58031 | 937 ft | 93 kts | 351° |
| 2026-05-05 16:44 | 53.62706 | 11.57630 | 1237 ft | 95 kts | 339° |
| 2026-05-05 16:44 | 53.63344 | 11.57038 | 1371 ft | 112 kts | 335° |
| 2026-05-05 16:44 | 53.64063 | 11.56347 | 1536 ft | 121 kts | 335° |
| 2026-05-05 16:45 | 53.64800 | 11.55579 | 1699 ft | 131 kts | 332° |
| 2026-05-05 16:45 | 53.65572 | 11.54671 | 1790 ft | 138 kts | 328° |
| 2026-05-05 16:45 | 53.66341 | 11.53669 | 1863 ft | 141 kts | 327° |
| 2026-05-05 16:45 | 53.67128 | 11.52670 | 1964 ft | 141 kts | 327° |
| 2026-05-05 16:46 | 53.67920 | 11.51675 | 2062 ft | 142 kts | 326° |
| 2026-05-05 16:46 | 53.68690 | 11.50647 | 2169 ft | 143 kts | 325° |
| 2026-05-05 16:46 | 53.69454 | 11.49570 | 2253 ft | 144 kts | 324° |
| 2026-05-05 16:46 | 53.70230 | 11.48450 | 2160 ft | 154 kts | 323° |
| 2026-05-05 16:47 | 53.70999 | 11.47297 | 1984 ft | 131 kts | 323° |
| 2026-05-05 16:47 | 53.71583 | 11.46291 | 1775 ft | 110 kts | 319° |
| 2026-05-05 16:47 | 53.72043 | 11.45340 | 1575 ft | 99 kts | 316° |
| 2026-05-05 16:47 | 53.72471 | 11.44491 | 1382 ft | 91 kts | 320° |
| 2026-05-05 16:48 | 53.72884 | 11.43737 | 1201 ft | 86 kts | 322° |
| 2026-05-05 16:48 | 53.73304 | 11.43033 | 964 ft | 85 kts | 321° |
| 2026-05-05 16:48 | 53.73753 | 11.42389 | 759 ft | 84 kts | 329° |
| 2026-05-05 16:48 | 53.74238 | 11.41897 | 590 ft | 77 kts | 343° |
| 2026-05-05 16:49 | 53.74740 | 11.41741 | 396 ft | 72 kts | 11° |